createdAt,value
2023-05-08T00:00:08.790Z,18.29
2023-05-08T00:02:38.829Z,18.25
2023-05-08T00:05:09.047Z,18.22
2023-05-08T00:07:38.015Z,18.20
2023-05-08T00:10:08.217Z,18.16
2023-05-08T00:12:36.759Z,18.13
2023-05-08T00:15:06.902Z,18.09
2023-05-08T00:17:35.219Z,18.07
2023-05-08T00:20:05.644Z,18.04
2023-05-08T00:22:33.917Z,18.02
2023-05-08T00:25:07.673Z,17.96
2023-05-08T00:27:36.014Z,17.96
2023-05-08T00:30:04.648Z,17.94
2023-05-08T00:32:33.177Z,17.90
2023-05-08T00:35:01.474Z,17.87
2023-05-08T00:37:31.148Z,17.84
2023-05-08T00:39:59.500Z,17.84
2023-05-08T00:42:30.336Z,17.83
2023-05-08T00:44:58.623Z,17.81
2023-05-08T00:47:29.095Z,17.81
2023-05-08T00:49:57.764Z,17.80
2023-05-08T00:52:27.318Z,17.81
2023-05-08T00:54:57.367Z,17.81
2023-05-08T00:57:26.454Z,17.80
2023-05-08T00:59:55.888Z,17.79
2023-05-08T01:02:24.521Z,17.78
2023-05-08T01:04:55.082Z,17.77
2023-05-08T01:07:23.953Z,17.76
2023-05-08T01:09:52.267Z,17.75
2023-05-08T01:12:32.002Z,17.71
2023-05-08T01:15:10.628Z,17.69
2023-05-08T01:17:57.483Z,17.67
2023-05-08T01:20:40.880Z,17.65
2023-05-08T01:23:59.403Z,17.60
2023-05-08T01:27:25.344Z,17.57
2023-05-08T01:30:42.868Z,17.53
2023-05-08T01:33:22.954Z,17.50
2023-05-08T01:35:56.352Z,17.50
2023-05-08T01:38:38.293Z,17.48
2023-05-08T01:41:12.108Z,17.44
2023-05-08T01:43:49.915Z,17.42
2023-05-08T01:46:22.205Z,17.41
2023-05-08T01:49:00.631Z,17.39
2023-05-08T01:51:34.843Z,17.38
2023-05-08T01:54:10.100Z,17.36
2023-05-08T01:56:41.595Z,17.34
2023-05-08T01:59:11.924Z,17.31
2023-05-08T02:01:43.625Z,17.30
2023-05-08T02:04:15.862Z,17.26
2023-05-08T02:06:45.046Z,17.24
2023-05-08T02:09:14.247Z,17.23
2023-05-08T02:11:45.497Z,17.22
2023-05-08T02:14:15.937Z,17.18
2023-05-08T02:16:46.286Z,17.17
2023-05-08T02:19:17.658Z,17.14
2023-05-08T02:21:47.434Z,17.12
2023-05-08T02:24:17.491Z,17.08
2023-05-08T02:26:47.500Z,17.10
2023-05-08T02:29:16.891Z,17.08
2023-05-08T02:31:47.912Z,17.07
2023-05-08T02:34:18.825Z,17.03
2023-05-08T02:36:47.473Z,17.04
2023-05-08T02:39:18.752Z,17.01
2023-05-08T02:41:47.903Z,17.00
2023-05-08T02:44:19.781Z,16.97
2023-05-08T02:47:00.205Z,16.92
2023-05-08T02:49:41.244Z,16.88
2023-05-08T02:52:15.407Z,16.81
2023-05-08T02:54:48.636Z,16.77
2023-05-08T02:57:32.080Z,16.76
2023-05-08T03:00:07.499Z,16.70
2023-05-08T03:02:41.721Z,16.68
2023-05-08T03:05:19.236Z,16.63
2023-05-08T03:07:52.498Z,16.58
2023-05-08T03:10:27.547Z,16.57
2023-05-08T03:12:58.342Z,16.55
2023-05-08T03:15:36.827Z,16.51
2023-05-08T03:18:16.688Z,16.48
2023-05-08T03:20:50.122Z,16.45
2023-05-08T03:23:22.329Z,16.43
2023-05-08T03:25:50.702Z,16.41
2023-05-08T03:28:19.807Z,16.37
2023-05-08T03:30:49.418Z,16.36
2023-05-08T03:33:19.186Z,16.36
2023-05-08T03:35:50.972Z,16.33
2023-05-08T03:38:19.819Z,16.33
2023-05-08T03:40:49.393Z,16.32
2023-05-08T03:43:19.111Z,16.29
2023-05-08T03:45:47.938Z,16.29
2023-05-08T03:48:16.496Z,16.28
2023-05-08T03:50:48.699Z,16.27
2023-05-08T03:53:18.509Z,16.24
2023-05-08T03:55:47.099Z,16.23
2023-05-08T03:58:23.009Z,16.19
2023-05-08T04:01:05.437Z,16.14
2023-05-08T04:03:50.061Z,16.10
2023-05-08T04:06:35.675Z,16.07
2023-05-08T04:09:19.470Z,16.04
2023-05-08T04:12:02.515Z,16.02
2023-05-08T04:14:41.180Z,15.99
2023-05-08T04:17:12.004Z,15.98
2023-05-08T04:19:46.330Z,15.95
2023-05-08T04:22:16.377Z,15.93
2023-05-08T04:24:49.365Z,15.89
2023-05-08T04:27:18.276Z,15.88
2023-05-08T04:29:46.776Z,15.82
2023-05-08T04:32:15.715Z,15.76
2023-05-08T04:34:44.269Z,15.70
2023-05-08T04:37:28.280Z,15.63
2023-05-08T04:40:01.555Z,15.59
2023-05-08T04:42:30.209Z,15.58
2023-05-08T04:45:01.615Z,15.56
2023-05-08T04:47:30.001Z,15.52
2023-05-08T04:49:59.547Z,15.54
2023-05-08T04:52:32.608Z,15.52
2023-05-08T04:55:05.839Z,15.52
2023-05-08T04:57:34.788Z,15.51
2023-05-08T05:00:03.301Z,15.50
2023-05-08T05:02:31.656Z,15.52
2023-05-08T05:05:01.369Z,15.50
2023-05-08T05:07:32.764Z,15.47
2023-05-08T05:10:03.060Z,15.43
2023-05-08T05:12:31.466Z,15.40
2023-05-08T05:14:59.840Z,15.37
2023-05-08T05:17:28.655Z,15.27
2023-05-08T05:19:57.419Z,15.21
2023-05-08T05:22:25.900Z,15.15
2023-05-08T05:24:54.238Z,15.07
2023-05-08T05:27:23.934Z,14.98
2023-05-08T05:29:55.271Z,14.95
2023-05-08T05:32:23.641Z,14.96
2023-05-08T05:34:53.898Z,14.94
2023-05-08T05:37:22.287Z,14.98
2023-05-08T05:39:50.659Z,15.02
2023-05-08T05:42:18.993Z,15.04
2023-05-08T05:44:48.704Z,15.10
2023-05-08T05:47:17.109Z,15.16
2023-05-08T05:49:46.938Z,15.21
2023-05-08T05:52:15.469Z,15.30
2023-05-08T05:54:43.931Z,15.26
2023-05-08T05:57:13.355Z,15.32
2023-05-08T05:59:41.827Z,15.31
2023-05-08T06:02:14.577Z,15.35
2023-05-08T06:04:43.011Z,15.37
2023-05-08T06:07:11.368Z,15.39
2023-05-08T06:09:39.675Z,15.42
2023-05-08T06:12:08.340Z,15.48
2023-05-08T06:14:36.662Z,15.53
2023-05-08T06:17:05.154Z,15.54
2023-05-08T06:19:35.057Z,15.60
2023-05-08T06:22:03.520Z,15.72
2023-05-08T06:24:31.904Z,15.79
2023-05-08T06:27:00.258Z,15.83
2023-05-08T06:29:28.622Z,15.95
2023-05-08T06:31:57.665Z,15.99
2023-05-08T06:34:26.112Z,15.99
2023-05-08T06:36:56.398Z,15.98
2023-05-08T06:39:24.926Z,15.98
2023-05-08T06:41:53.267Z,16.02
2023-05-08T06:44:21.597Z,16.00
2023-05-08T06:46:50.037Z,15.95
2023-05-08T06:49:18.373Z,15.86
2023-05-08T06:51:46.722Z,15.83
2023-05-08T06:54:16.618Z,15.90
2023-05-08T06:56:45.036Z,15.86
2023-05-08T06:59:13.443Z,15.92
2023-05-08T07:01:41.937Z,15.99
2023-05-08T07:04:10.338Z,16.09
2023-05-08T07:06:38.757Z,16.19
2023-05-08T07:09:07.052Z,16.28
2023-05-08T07:11:36.811Z,16.34
2023-05-08T07:14:05.150Z,16.36
2023-05-08T07:16:33.674Z,16.37
2023-05-08T07:19:02.116Z,16.34
2023-05-08T07:21:30.759Z,16.37
2023-05-08T07:23:59.067Z,16.42
2023-05-08T07:26:27.385Z,16.44
2023-05-08T07:28:57.188Z,16.50
2023-05-08T07:31:26.453Z,16.53
2023-05-08T07:33:54.967Z,16.56
2023-05-08T07:36:23.899Z,16.51
2023-05-08T07:38:52.214Z,16.50
2023-05-08T07:41:20.620Z,16.50
2023-05-08T07:43:51.779Z,16.49
2023-05-08T07:46:21.821Z,16.55
2023-05-08T07:48:50.191Z,16.61
2023-05-08T07:51:18.640Z,16.68
2023-05-08T07:53:48.781Z,16.79
2023-05-08T07:56:17.212Z,16.94
2023-05-08T07:58:46.083Z,17.05
2023-05-08T08:01:14.451Z,17.15
2023-05-08T08:03:44.241Z,17.25
2023-05-08T08:06:12.874Z,17.40
2023-05-08T08:08:41.403Z,17.55
2023-05-08T08:11:09.916Z,17.68
2023-05-08T08:13:38.169Z,17.77
2023-05-08T08:16:07.665Z,17.82
2023-05-08T08:18:37.082Z,17.97
2023-05-08T08:21:09.536Z,18.07
2023-05-08T08:23:38.666Z,18.21
2023-05-08T08:26:07.070Z,18.38
2023-05-08T08:28:35.354Z,18.50
2023-05-08T08:31:03.712Z,18.59
2023-05-08T08:33:32.147Z,18.68
2023-05-08T08:36:00.479Z,18.78
2023-05-08T08:38:30.320Z,18.86
2023-05-08T08:40:58.688Z,18.94
2023-05-08T08:43:27.138Z,19.06
2023-05-08T08:45:55.801Z,19.18
2023-05-08T08:48:29.621Z,19.34
2023-05-08T08:51:03.990Z,19.51
2023-05-08T08:53:38.595Z,19.67
2023-05-08T08:56:12.682Z,19.72
2023-05-08T08:58:51.148Z,19.84
2023-05-08T09:01:20.904Z,19.97
2023-05-08T09:03:50.077Z,20.10
2023-05-08T09:06:18.686Z,20.21
2023-05-08T09:08:49.221Z,20.36
2023-05-08T09:11:17.517Z,20.44
2023-05-08T09:13:45.862Z,20.55
2023-05-08T09:16:14.220Z,20.68
2023-05-08T09:18:42.544Z,20.74
2023-05-08T09:21:11.233Z,20.86
2023-05-08T09:23:54.636Z,20.97
2023-05-08T09:26:29.705Z,21.13
2023-05-08T09:29:11.813Z,21.25
2023-05-08T09:31:42.213Z,21.34
2023-05-08T09:34:11.837Z,21.41
2023-05-08T09:36:42.109Z,21.52
2023-05-08T09:39:13.972Z,21.66
2023-05-08T09:41:59.712Z,21.82
2023-05-08T09:44:28.175Z,21.95
2023-05-08T09:47:12.287Z,22.07
2023-05-08T09:49:40.915Z,22.18
2023-05-08T09:52:09.546Z,22.24
2023-05-08T09:54:39.495Z,22.31
2023-05-08T09:57:14.183Z,22.36
2023-05-08T09:59:42.503Z,22.45
2023-05-08T10:02:16.283Z,22.51
2023-05-08T10:04:44.852Z,22.63
2023-05-08T10:07:13.235Z,22.76
2023-05-08T10:10:00.441Z,22.77
2023-05-08T10:12:29.413Z,22.86
2023-05-08T10:14:58.172Z,22.91
2023-05-08T10:17:39.976Z,22.90
2023-05-08T10:20:10.135Z,23.01
2023-05-08T10:22:39.941Z,23.09
2023-05-08T10:25:18.533Z,23.11
2023-05-08T10:27:54.973Z,23.13
2023-05-08T10:30:27.957Z,23.16
2023-05-08T10:32:59.744Z,23.11
2023-05-08T10:35:31.863Z,23.12
2023-05-08T10:38:00.688Z,23.18
2023-05-08T10:40:30.355Z,23.26
2023-05-08T10:42:59.962Z,23.28
2023-05-08T10:45:29.853Z,23.32
2023-05-08T10:48:10.272Z,23.35
2023-05-08T10:50:53.773Z,23.39
2023-05-08T10:53:30.739Z,23.43
2023-05-08T10:56:01.200Z,23.54
2023-05-08T10:58:34.122Z,23.64
2023-05-08T11:01:16.913Z,23.73
2023-05-08T11:03:51.707Z,23.83
2023-05-08T11:06:44.630Z,23.92
2023-05-08T11:09:23.107Z,24.03
2023-05-08T11:12:08.899Z,24.11
2023-05-08T11:14:41.806Z,24.17
2023-05-08T11:17:11.499Z,24.25
2023-05-08T11:19:40.110Z,24.30
2023-05-08T11:22:27.136Z,24.32
2023-05-08T11:25:02.370Z,24.46
2023-05-08T11:28:14.632Z,24.57
2023-05-08T11:30:46.548Z,24.65
2023-05-08T11:33:18.853Z,24.75
2023-05-08T11:35:56.432Z,24.79
2023-05-08T11:38:30.982Z,24.79
2023-05-08T11:41:02.669Z,24.92
2023-05-08T11:44:10.448Z,24.91
2023-05-08T11:46:50.328Z,24.99
2023-05-08T11:49:23.842Z,25.03
2023-05-08T11:51:57.979Z,25.06
2023-05-08T11:54:27.588Z,25.12
2023-05-08T11:56:56.240Z,25.13
2023-05-08T11:59:27.531Z,25.13
2023-05-08T12:02:07.784Z,25.16
2023-05-08T12:04:46.038Z,25.10
2023-05-08T12:07:15.870Z,25.16
2023-05-08T12:09:44.201Z,25.16
2023-05-08T12:12:12.535Z,25.21
2023-05-08T12:14:43.447Z,25.19
2023-05-08T12:17:18.133Z,25.14
2023-05-08T12:19:46.575Z,25.08
2023-05-08T12:22:14.851Z,25.04
2023-05-08T12:24:43.210Z,25.02
2023-05-08T12:27:14.494Z,25.00
2023-05-08T12:29:46.657Z,24.95
2023-05-08T12:32:16.487Z,24.97
2023-05-08T12:34:44.909Z,25.00
2023-05-08T12:37:13.246Z,25.00
2023-05-08T12:39:46.089Z,24.99
2023-05-08T12:42:14.392Z,25.01
2023-05-08T12:44:51.923Z,25.02
2023-05-08T12:47:21.673Z,25.05
2023-05-08T12:49:50.630Z,25.05
2023-05-08T12:52:19.383Z,25.07
2023-05-08T12:54:49.812Z,25.05
2023-05-08T12:57:22.933Z,25.01
2023-05-08T12:59:51.357Z,25.09
2023-05-08T13:02:24.021Z,25.13
2023-05-08T13:04:56.787Z,25.17
2023-05-08T13:07:32.840Z,25.20
2023-05-08T13:10:04.451Z,25.22
2023-05-08T13:12:32.902Z,25.25
2023-05-08T13:15:01.614Z,25.28
2023-05-08T13:17:31.326Z,25.30
2023-05-08T13:19:59.685Z,25.29
2023-05-08T13:22:28.032Z,25.32
2023-05-08T13:24:56.345Z,25.33
2023-05-08T13:27:24.892Z,25.34
2023-05-08T13:29:53.218Z,25.35
2023-05-08T13:32:21.677Z,25.35
2023-05-08T13:34:53.741Z,25.34
2023-05-08T13:37:24.690Z,25.36
2023-05-08T13:39:52.999Z,25.39
2023-05-08T13:42:21.394Z,25.44
2023-05-08T13:44:49.729Z,25.47
2023-05-08T13:47:18.703Z,25.47
2023-05-08T13:49:47.306Z,25.50
2023-05-08T13:52:16.960Z,25.52
2023-05-08T13:54:48.188Z,25.53
2023-05-08T13:57:16.507Z,25.51
2023-05-08T13:59:44.894Z,25.51
2023-05-08T14:02:13.684Z,25.47
2023-05-08T14:04:42.900Z,25.47
2023-05-08T14:07:11.262Z,25.39
2023-05-08T14:09:40.957Z,25.35
2023-05-08T14:12:15.429Z,25.32
2023-05-08T14:14:43.844Z,25.31
2023-05-08T14:17:12.149Z,25.27
2023-05-08T14:19:40.524Z,25.24
2023-05-08T14:22:08.816Z,25.21
2023-05-08T14:24:37.127Z,25.20
2023-05-08T14:27:06.834Z,25.16
2023-05-08T14:29:35.427Z,25.15
2023-05-08T14:32:04.106Z,25.09
2023-05-08T14:34:32.497Z,25.03
2023-05-08T14:37:00.806Z,24.98
2023-05-08T14:39:29.066Z,24.95
2023-05-08T14:42:18.246Z,24.87
2023-05-08T14:44:52.871Z,24.86
2023-05-08T14:47:21.447Z,24.78
2023-05-08T14:49:49.753Z,24.75
2023-05-08T14:52:18.073Z,24.69
2023-05-08T14:54:47.986Z,24.68
2023-05-08T14:57:16.456Z,24.64
2023-05-08T14:59:54.190Z,24.60
2023-05-08T15:02:23.860Z,24.57
2023-05-08T15:04:52.279Z,24.54
2023-05-08T15:07:20.548Z,24.51
2023-05-08T15:09:53.156Z,24.49
2023-05-08T15:12:24.193Z,24.48
2023-05-08T15:14:53.896Z,24.39
2023-05-08T15:17:22.303Z,24.30
2023-05-08T15:19:50.624Z,24.25
2023-05-08T15:22:19.044Z,24.20
2023-05-08T15:24:47.300Z,24.17
2023-05-08T15:27:15.594Z,24.14
2023-05-08T15:29:45.371Z,24.11
2023-05-08T15:32:15.071Z,24.05
2023-05-08T15:34:43.401Z,24.01
2023-05-08T15:37:11.732Z,23.98
2023-05-08T15:39:40.052Z,23.97
2023-05-08T15:42:08.577Z,23.94
2023-05-08T15:47:10.811Z,23.85
2023-05-08T15:49:41.152Z,23.82
2023-05-08T15:52:09.513Z,23.79
2023-05-08T15:54:37.836Z,23.73
2023-05-08T15:57:06.228Z,23.74
2023-05-08T15:59:34.625Z,23.68
2023-05-08T16:02:03.003Z,23.67
2023-05-08T16:04:34.054Z,23.64
2023-05-08T16:07:04.415Z,23.65
2023-05-08T16:09:32.861Z,23.60
2023-05-08T16:12:01.259Z,23.56
2023-05-08T16:14:29.612Z,23.54
2023-05-08T16:16:57.997Z,23.51
2023-05-08T16:19:26.459Z,23.47
2023-05-08T16:21:54.877Z,23.43
2023-05-08T16:24:24.609Z,23.39
2023-05-08T16:26:53.563Z,23.37
2023-05-08T16:29:21.937Z,23.33
2023-05-08T16:31:50.558Z,23.33
2023-05-08T16:34:23.611Z,23.30
2023-05-08T16:36:51.970Z,23.24
2023-05-08T16:39:20.355Z,23.20
2023-05-08T16:41:50.248Z,23.19
2023-05-08T16:44:31.212Z,23.17
2023-05-08T16:46:59.743Z,23.12
2023-05-08T16:49:33.680Z,23.10
2023-05-08T16:52:02.107Z,23.08
2023-05-08T16:54:30.812Z,23.07
2023-05-08T16:57:00.606Z,23.03
2023-05-08T16:59:32.267Z,23.01
2023-05-08T17:02:00.663Z,22.99
2023-05-08T17:04:30.893Z,22.95
2023-05-08T17:07:00.020Z,22.90
2023-05-08T17:09:28.963Z,22.87
2023-05-08T17:11:58.254Z,22.84
2023-05-08T17:14:30.964Z,22.79
2023-05-08T17:16:59.399Z,22.76
2023-05-08T17:19:27.833Z,22.72
2023-05-08T17:21:58.229Z,22.66
2023-05-08T17:24:30.167Z,22.62
2023-05-08T17:26:58.594Z,22.56
2023-05-08T17:29:28.402Z,22.50
2023-05-08T17:31:56.970Z,22.47
2023-05-08T17:34:25.509Z,22.44
2023-05-08T17:36:55.103Z,22.41
2023-05-08T17:39:23.922Z,22.37
2023-05-08T17:41:53.269Z,22.33
2023-05-08T17:44:21.657Z,22.28
2023-05-08T17:46:51.444Z,22.24
2023-05-08T17:49:22.778Z,22.17
2023-05-08T17:51:51.154Z,22.14
2023-05-08T17:54:19.548Z,22.11
2023-05-08T17:56:50.949Z,22.07
2023-05-08T17:59:19.754Z,22.03
2023-05-08T18:01:48.290Z,21.98
2023-05-08T18:04:21.295Z,21.92
2023-05-08T18:06:51.658Z,21.88
2023-05-08T18:09:20.850Z,21.81
2023-05-08T18:11:49.370Z,21.78
2023-05-08T18:14:23.347Z,21.72
2023-05-08T18:16:51.790Z,21.67
2023-05-08T18:19:27.587Z,21.61
2023-05-08T18:21:55.987Z,21.55
2023-05-08T18:24:24.509Z,21.48
2023-05-08T18:26:52.958Z,21.43
2023-05-08T18:29:21.310Z,21.37
2023-05-08T18:31:49.684Z,21.29
2023-05-08T18:34:18.003Z,21.23
2023-05-08T18:36:47.681Z,21.16
2023-05-08T18:39:16.217Z,21.12
2023-05-08T18:41:44.576Z,21.07
2023-05-08T18:44:12.926Z,21.02
2023-05-08T18:46:41.309Z,20.96
2023-05-08T18:49:09.672Z,20.91
2023-05-08T18:51:38.019Z,20.85
2023-05-08T18:54:07.806Z,20.82
2023-05-08T18:56:36.179Z,20.79
2023-05-08T18:59:04.670Z,20.73
2023-05-08T19:01:33.119Z,20.68
2023-05-08T19:04:02.869Z,20.61
2023-05-08T19:06:31.515Z,20.57
2023-05-08T19:08:59.874Z,20.51
2023-05-08T19:11:29.646Z,20.43
2023-05-08T19:13:58.014Z,20.38
2023-05-08T19:16:26.559Z,20.33
2023-05-08T19:18:55.037Z,20.27
2023-05-08T19:21:23.470Z,20.22
2023-05-08T19:23:51.864Z,20.16
2023-05-08T19:26:20.203Z,20.10
2023-05-08T19:28:49.956Z,20.04
2023-05-08T19:31:18.382Z,19.99
2023-05-08T19:33:47.343Z,19.94
2023-05-08T19:36:15.751Z,19.90
2023-05-08T19:38:44.074Z,19.87
2023-05-08T19:41:13.165Z,19.83
2023-05-08T19:43:41.501Z,19.78
2023-05-08T19:46:11.271Z,19.74
2023-05-08T19:48:39.841Z,19.68
2023-05-08T19:51:08.903Z,19.64
2023-05-08T19:53:37.484Z,19.60
2023-05-08T19:56:06.127Z,19.55
2023-05-08T19:58:34.476Z,19.53
2023-05-08T20:01:02.925Z,19.50
2023-05-08T20:03:32.731Z,19.46
2023-05-08T20:06:01.167Z,19.42
2023-05-08T20:08:29.608Z,19.38
2023-05-08T20:11:02.284Z,19.35
2023-05-08T20:13:30.642Z,19.30
2023-05-08T20:15:59.492Z,19.25
2023-05-08T20:18:27.836Z,19.21
2023-05-08T20:20:57.856Z,19.16
2023-05-08T20:23:26.234Z,19.13
2023-05-08T20:25:54.799Z,19.09
2023-05-08T20:28:26.014Z,19.07
2023-05-08T20:30:54.553Z,19.01
2023-05-08T20:33:22.866Z,19.00
2023-05-08T20:35:51.269Z,18.96
2023-05-08T20:38:21.259Z,18.91
2023-05-08T20:40:49.686Z,18.88
2023-05-08T20:43:19.382Z,18.87
2023-05-08T20:45:49.167Z,18.85
2023-05-08T20:48:17.590Z,18.81
2023-05-08T20:50:45.849Z,18.79
2023-05-08T20:53:14.143Z,18.76
2023-05-08T20:55:43.834Z,18.72
2023-05-08T20:58:12.362Z,18.70
2023-05-08T21:00:40.703Z,18.68
2023-05-08T21:03:09.009Z,18.65
2023-05-08T21:05:37.321Z,18.61
2023-05-08T21:08:06.310Z,18.58
2023-05-08T21:10:34.685Z,18.55
2023-05-08T21:13:05.377Z,18.52
2023-05-08T21:15:35.065Z,18.47
2023-05-08T21:18:03.434Z,18.44
2023-05-08T21:20:34.272Z,18.40
2023-05-08T21:23:02.589Z,18.36
2023-05-08T21:25:31.090Z,18.33
2023-05-08T21:27:59.377Z,18.29
2023-05-08T21:30:29.094Z,18.26
2023-05-08T21:32:57.592Z,18.22
2023-05-08T21:35:25.904Z,18.19
2023-05-08T21:37:54.850Z,18.16
2023-05-08T21:40:23.388Z,18.11
2023-05-08T21:42:51.758Z,18.07
2023-05-08T21:45:20.047Z,18.04
2023-05-08T21:47:49.884Z,17.97
2023-05-08T21:50:18.492Z,17.93
2023-05-08T21:52:46.819Z,17.88
2023-05-08T21:55:15.402Z,17.84
2023-05-08T21:57:43.873Z,17.77
2023-05-08T22:00:13.737Z,17.76
2023-05-08T22:02:42.125Z,17.72
2023-05-08T22:05:12.152Z,17.67
2023-05-08T22:07:40.617Z,17.66
2023-05-08T22:10:11.634Z,17.63
2023-05-08T22:12:40.015Z,17.59
2023-05-08T22:15:18.307Z,17.57
2023-05-08T22:17:55.864Z,17.54
2023-05-08T22:20:26.140Z,17.51
2023-05-08T22:22:54.588Z,17.49
2023-05-08T22:25:26.745Z,17.46
2023-05-08T22:27:55.189Z,17.45
2023-05-08T22:30:24.531Z,17.39
2023-05-08T22:32:58.168Z,17.38
2023-05-08T22:35:28.931Z,17.37
2023-05-08T22:37:58.359Z,17.33
2023-05-08T22:40:27.417Z,17.29
2023-05-08T22:42:58.759Z,17.26
2023-05-08T22:45:28.041Z,17.23
2023-05-08T22:47:56.796Z,17.20
2023-05-08T22:50:25.218Z,17.14
2023-05-08T22:52:54.915Z,17.11
2023-05-08T22:55:23.449Z,17.08
2023-05-08T22:57:51.840Z,17.04
2023-05-08T23:00:23.325Z,16.98
2023-05-08T23:02:51.701Z,16.95
2023-05-08T23:05:20.160Z,16.90
2023-05-08T23:07:48.502Z,16.88
2023-05-08T23:10:18.471Z,16.84
2023-05-08T23:12:46.956Z,16.81
2023-05-08T23:15:15.770Z,16.78
2023-05-08T23:17:44.378Z,16.75
2023-05-08T23:20:13.447Z,16.72
2023-05-08T23:22:44.811Z,16.69
2023-05-08T23:25:13.376Z,16.66
2023-05-08T23:27:43.332Z,16.62
2023-05-08T23:30:13.315Z,16.58
2023-05-08T23:32:44.762Z,16.55
2023-05-08T23:35:13.607Z,16.55
2023-05-08T23:37:42.013Z,16.53
2023-05-08T23:40:11.750Z,16.51
2023-05-08T23:42:40.711Z,16.51
2023-05-08T23:45:12.442Z,16.48
2023-05-08T23:47:41.527Z,16.49
2023-05-08T23:50:13.567Z,16.48
2023-05-08T23:52:43.012Z,16.44
2023-05-08T23:55:12.071Z,16.44
2023-05-08T23:57:40.597Z,16.43
